Terminal Aerodrome Forecast
Issued by NWS Greer, SC

Home | Current Version | Previous Version | Text Only | Print | Product List | Glossary On
Versions: 1 2 3 4 5 6 7 8 9 10 11 12 13 14 15 16 17 18 19 20 21 22 23 24 25 26 27 28 29 30 31 32 33 34 35 36 37 38 39 40 41 42 43 44
000
FTUS42 KGSP 231100
TAFCLT
TAF
KCLT 231127Z 2312/2412 35004KT P6SM FEW150 BKN250
     FM231600 02005KT P6SM SCT050 BKN150
     FM232100 04007KT P6SM BKN050 PROB30 2322/2404 4SM TSRA BKN040CB
     FM240400 06008KT P6SM VCSH BKN035
     FM240800 05006KT P6SM BKN022=

USA.gov is the U.S. government's official web portal to all federal, state and local government web resources and services.